Monona, WI

11:44 PM CDT on August 20, 2014 (GMT -0500)
Glendale | Change Station
CLOSE
Current Station
Personal Weather Station
Location: Madison, WI
Elevation: 912 ft
Nearby Weather Stations
Active Advisory: Special Statement

Elev 912 ft 43.06 °N, 89.31 °W | Updated 14 minutes ago

Scattered Clouds
Scattered Clouds
73.9 °F
Feels Like 72 °F
N
0.0
Wind Variable Wind from SW
Gusts 2.2 mph

Today
High -- | Low -- °F
--% Chance of Precip.
Yesterday
High -- | Low -- °F
Precip. -- in
6:08 AM 7:52 PM
Waning Crescent, 17% visible
Pressure 29.91 in
Visibility 10.0 miles
Clouds Scattered Clouds 4000 ft
Heat Index 72 °F
Dew Point 71 °F
Humidity 91%
Rainfall 0.00 in
Snow Depth Not available.
UV 0 out of 12
Pollen 9.90 out of 12
PM2.5 Good
Flu Activity Not available.
METAR KMSN 210353Z 00000KT 10SM SCT040 22/19 A2993 RMK AO2 SLP128 LAST AUGMENTED OBS OF THE DAY UNTIL 1045Z T02220194

More Conditions Fewer Conditions

Pressure 29.91 in
Visibility 10.0 miles
Clouds Scattered Clouds 4000 ft
Heat Index 72 °F
Dew Point 71 °F
Humidity 91%
Rainfall 0.00 in
Snow Depth Not available.
UV 0 out of 12
Pollen 9.90 out of 12
PM2.5 Good
Flu Activity Not available.
METAR KMSN 210353Z 00000KT 10SM SCT040 22/19 A2993 RMK AO2 SLP128 LAST AUGMENTED OBS OF THE DAY UNTIL 1045Z T02220194

More Conditions Fewer Conditions

10-Day Weather Forecast

Almanac

Astronomy

Aug. 20, 2014 Rise Set
Actual Time 6:08 AM CDT 7:52 PM CDT
Civil Twilight 5:38 AM CDT 8:22 PM CDT
Nautical Twilight 5:01 AM CDT 8:58 PM CDT
Astronomical Twilight 4:22 AM CDT 9:38 PM CDT
Moon 1:45 AM CDT (8/20) 4:39 PM CDT (8/20)
Length of Visible Light 14h 43m
Length of Day
13h 43m
Tomorrow will be 2m 41s shorter.
Waning Crescent, 17% of the Moon is Illuminated
Aug 21
Waning Crescent
Aug 25
New
Sep 2
First Quarter
Sep 8
Full
Sep 15
Last Quarter

Yesterday's Extremes

State Highs State Lows

Community

WunderPhotos

Upload Photos

1,745,856 photos uploaded!

Nearby

Air Quality

  Air Quality AQ Index Pollutant
Yesterday Good
OZONE
Yesterday Good
PM2.5
Current Good
PM2.5
Wednesday Good
OZONE
Wednesday Good
PM2.5
Thursday Good
OZONE
Thursday Good
PM2.5
Friday Moderate
OZONE
Friday Moderate
PM2.5
Saturday Moderate
OZONE
Saturday Moderate
PM2.5

Snow Depth

Station Depth Elevation
No new snow has been reported.

Earthquake Activity

City Distance Mag. Time & Date
No recent earthquake activity has been reported nearby.
Minimum magnitude displayed is 2.5.

Coastal Water Temperatures

Place Temperature
No Stations Reporting

Nearby Weather Stations